Time;durP1;ratioP1;P1;durP2;ratioP2;P2;SDS_P1;SDS_P2;PMS_P1;PMS_P2;Temp;Humidity;BMP_temperature;BMP_pressure;BME280_temperature;BME280_humidity;BME280_pressure;Samples;Min_cycle;Max_cycle;Signal;HPM_P1;HPM_P2
2023/09/26 00:01:35;;;;;;;1999.90;999.90;;;14.40;99.90;;;;;;5107920;28;20028;-66
2023/09/26 00:04:01;;;;;;;1999.90;999.90;;;14.40;99.90;;;;;;5105618;28;20035;-66
2023/09/26 00:06:27;;;;;;;1999.90;999.90;;;14.40;99.90;;;;;;5106120;28;20020;-66
2023/09/26 00:08:52;;;;;;;1999.90;999.90;;;14.40;99.90;;;;;;5092356;27;20031;-67
2023/09/26 00:11:19;;;;;;;1999.90;999.90;;;14.40;99.90;;;;;;5108578;28;20038;-66
2023/09/26 00:13:45;;;;;;;1999.90;999.90;;;14.40;99.90;;;;;;5080668;28;20035;-66
2023/09/26 00:16:12;;;;;;;1999.90;999.90;;;14.40;99.90;;;;;;5103152;28;20451;-80
2023/09/26 00:18:40;;;;;;;1999.90;999.90;;;14.40;99.90;;;;;;5106116;28;20038;-66
2023/09/26 00:21:10;;;;;;;1999.90;999.90;;;14.40;99.90;;;;;;5101068;28;20394;-66
2023/09/26 00:23:36;;;;;;;1999.90;999.90;;;14.40;99.90;;;;;;5110746;28;20077;-66
2023/09/26 00:26:07;;;;;;;1999.90;999.90;;;14.30;99.90;;;;;;5105229;28;20034;-66
2023/09/26 00:28:33;;;;;;;1999.90;999.90;;;14.20;99.90;;;;;;5114450;27;20020;-66
2023/09/26 00:31:03;;;;;;;1999.90;999.90;;;14.20;99.90;;;;;;5102996;28;20024;-66
2023/09/26 00:33:29;;;;;;;1999.90;999.90;;;14.20;99.90;;;;;;5099419;28;20274;-67
2023/09/26 00:35:55;;;;;;;1999.90;999.90;;;14.20;99.90;;;;;;5105101;28;20471;-66
2023/09/26 00:38:22;;;;;;;1999.90;999.90;;;14.20;99.90;;;;;;5096159;28;20031;-66
2023/09/26 00:40:47;;;;;;;1999.90;999.90;;;14.20;99.90;;;;;;5116348;28;20028;-66
2023/09/26 00:43:23;;;;;;;1999.90;999.90;;;14.20;99.90;;;;;;5111492;28;20092;-66
2023/09/26 00:45:56;;;;;;;1999.90;999.90;;;14.20;99.90;;;;;;5117086;28;20055;-67
2023/09/26 00:48:24;;;;;;;1999.90;999.90;;;14.20;99.90;;;;;;5120237;27;20099;-66
2023/09/26 00:50:54;;;;;;;1999.90;999.90;;;14.20;99.90;;;;;;5087615;28;20418;-66
2023/09/26 00:53:21;;;;;;;1999.90;999.90;;;14.20;99.90;;;;;;5113685;28;20480;-66
2023/09/26 00:55:54;;;;;;;1999.90;999.90;;;14.20;99.90;;;;;;5101659;28;20040;-66
2023/09/26 00:58:22;;;;;;;1999.90;999.90;;;14.20;99.90;;;;;;5102539;28;20031;-66
2023/09/26 01:00:51;;;;;;;1999.90;999.90;;;14.20;99.90;;;;;;5112144;28;20027;-66
2023/09/26 01:03:16;;;;;;;1999.90;999.90;;;14.10;99.90;;;;;;5110943;27;20031;-66
2023/09/26 01:05:42;;;;;;;1999.90;999.90;;;14.10;99.90;;;;;;5110873;28;20031;-66
2023/09/26 01:08:09;;;;;;;1999.90;999.90;;;14.10;99.90;;;;;;5107670;27;20424;-66
2023/09/26 01:10:36;;;;;;;1999.90;999.90;;;14.00;99.90;;;;;;5086894;28;20326;-66
2023/09/26 01:13:03;;;;;;;1999.90;999.90;;;13.90;99.90;;;;;;5105515;28;20028;-66
2023/09/26 01:15:36;;;;;;;1999.90;999.90;;;13.90;99.90;;;;;;5100037;28;20039;-66
2023/09/26 01:18:09;;;;;;;1999.90;999.90;;;13.90;99.90;;;;;;5100518;28;20024;-66
2023/09/26 01:20:39;;;;;;;1999.90;999.90;;;13.90;99.90;;;;;;5114525;28;20012;-66
2023/09/26 01:23:06;;;;;;;1999.90;999.90;;;14.00;99.90;;;;;;5107899;28;20030;-73
2023/09/26 01:25:35;;;;;;;1999.90;999.90;;;14.00;99.90;;;;;;5108123;28;20026;-66
2023/09/26 01:28:06;;;;;;;1999.90;999.90;;;14.00;99.90;;;;;;5119206;27;20024;-66
2023/09/26 01:30:34;;;;;;;1999.90;999.90;;;14.10;99.90;;;;;;5109198;28;20023;-81
2023/09/26 01:33:01;;;;;;;1999.90;999.90;;;14.10;99.90;;;;;;5107726;28;20292;-66
2023/09/26 01:35:26;;;;;;;;;;;14.10;99.90;;;;;;5112675;28;20024;-66
2023/09/26 01:37:52;;;;;;;1999.90;999.90;;;14.10;99.90;;;;;;5083841;28;20222;-66
2023/09/26 01:40:18;;;;;;;1999.90;999.90;;;14.20;99.90;;;;;;5101588;28;20297;-66
2023/09/26 01:42:43;;;;;;;1999.90;999.90;;;14.30;99.90;;;;;;5106658;28;20020;-66
2023/09/26 01:45:10;;;;;;;1999.90;999.90;;;14.30;99.90;;;;;;5097897;28;20035;-66
2023/09/26 01:47:57;;;;;;;1999.90;999.90;;;14.30;99.90;;;;;;5111968;27;20059;-66
2023/09/26 01:50:23;;;;;;;1999.90;999.90;;;14.30;99.90;;;;;;5112954;28;20035;-66
2023/09/26 01:52:49;;;;;;;1999.90;999.90;;;14.30;99.90;;;;;;5107308;28;20073;-66
2023/09/26 01:55:22;;;;;;;1999.90;999.90;;;14.30;99.90;;;;;;5111243;28;20042;-66
2023/09/26 01:57:49;;;;;;;1999.90;999.90;;;14.30;99.90;;;;;;5104893;28;20040;-66
2023/09/26 02:00:17;;;;;;;1999.90;999.90;;;14.30;99.90;;;;;;5107002;28;20372;-66
2023/09/26 02:02:49;;;;;;;1999.90;999.90;;;14.30;99.90;;;;;;5080774;28;20024;-66
2023/09/26 02:05:17;;;;;;;1999.90;999.90;;;14.20;99.90;;;;;;5106732;27;20051;-66
2023/09/26 02:07:43;;;;;;;1999.90;999.90;;;14.30;99.90;;;;;;5101809;28;20423;-66
2023/09/26 02:10:09;;;;;;;1999.90;999.90;;;14.30;99.90;;;;;;5104361;28;20024;-66
2023/09/26 02:12:37;;;;;;;1999.90;999.90;;;14.30;99.90;;;;;;5099305;28;20024;-66
2023/09/26 02:15:08;;;;;;;1999.90;999.90;;;14.40;99.90;;;;;;5101098;28;20118;-66
2023/09/26 02:17:38;;;;;;;1999.90;999.90;;;14.30;99.90;;;;;;5079165;28;20024;-66
2023/09/26 02:20:12;;;;;;;1999.90;999.90;;;14.30;99.90;;;;;;5103102;28;21931;-66
2023/09/26 02:22:45;;;;;;;1999.90;999.90;;;14.20;99.90;;;;;;5099103;28;20474;-66
2023/09/26 02:25:12;;;;;;;1999.90;999.90;;;14.20;99.90;;;;;;5110893;27;20071;-66
2023/09/26 02:27:44;;;;;;;1999.90;999.90;;;14.20;99.90;;;;;;5098390;28;20044;-66
2023/09/26 02:30:12;;;;;;;1999.90;999.90;;;14.20;99.90;;;;;;5099341;28;20028;-80
2023/09/26 02:32:38;;;;;;;1999.90;999.90;;;14.20;99.90;;;;;;5097225;28;20026;-67
2023/09/26 02:35:06;;;;;;;1999.90;999.90;;;14.20;99.90;;;;;;5103564;27;20377;-66
2023/09/26 02:37:32;;;;;;;1999.90;999.90;;;14.10;99.90;;;;;;5103862;27;20054;-66
2023/09/26 02:39:57;;;;;;;1999.90;999.90;;;14.10;99.90;;;;;;5106997;28;20047;-67
2023/09/26 02:42:23;;;;;;;1999.90;999.90;;;14.10;99.90;;;;;;5099751;28;20359;-66
2023/09/26 02:44:49;;;;;;;1999.90;999.90;;;14.10;99.90;;;;;;5107831;27;20025;-66
2023/09/26 02:47:14;;;;;;;1999.90;999.90;;;14.00;99.90;;;;;;5108927;28;20055;-74
2023/09/26 02:49:41;;;;;;;1999.90;999.90;;;14.00;99.90;;;;;;5107312;28;20115;-66
2023/09/26 02:52:07;;;;;;;1999.90;999.90;;;14.00;99.90;;;;;;5090393;28;20028;-66
2023/09/26 02:54:33;;;;;;;1999.90;999.90;;;14.00;99.90;;;;;;5112800;28;20028;-66
2023/09/26 02:56:59;;;;;;;1999.90;999.90;;;13.90;99.90;;;;;;5103140;28;20038;-67
2023/09/26 02:59:25;;;;;;;1999.90;999.90;;;13.90;99.90;;;;;;5110851;28;20058;-67
2023/09/26 03:01:51;;;;;;;1999.90;999.90;;;13.80;99.90;;;;;;5105453;28;20385;-66
2023/09/26 03:04:17;;;;;;;1999.90;999.90;;;13.80;99.90;;;;;;5103110;27;20276;-81
2023/09/26 03:06:43;;;;;;;1999.90;999.90;;;13.80;99.90;;;;;;5103201;27;20102;-67
2023/09/26 03:09:08;;;;;;;1999.90;999.90;;;13.70;99.90;;;;;;5105370;27;20097;-66
2023/09/26 03:11:34;;;;;;;1999.90;999.90;;;13.70;99.90;;;;;;5084486;28;20024;-66
2023/09/26 03:14:00;;;;;;;1999.90;999.90;;;13.70;99.90;;;;;;5105433;28;20052;-66
2023/09/26 03:16:25;;;;;;;1999.90;999.90;;;13.70;99.90;;;;;;5103892;28;20116;-67
2023/09/26 03:18:56;;;;;;;1999.90;999.90;;;13.70;99.90;;;;;;5099538;28;20039;-66
2023/09/26 03:21:22;;;;;;;1999.90;999.90;;;13.70;99.90;;;;;;5078655;28;20088;-81
2023/09/26 03:23:49;;;;;;;1999.90;999.90;;;13.70;99.90;;;;;;5112403;28;20475;-66
2023/09/26 03:26:14;;;;;;;1999.90;999.90;;;13.70;99.90;;;;;;5107699;28;20105;-66
2023/09/26 03:28:40;;;;;;;1999.90;999.90;;;13.70;99.90;;;;;;5100930;28;20058;-67
2023/09/26 03:31:08;;;;;;;1999.90;999.90;;;13.70;99.90;;;;;;5094325;28;20032;-66
2023/09/26 03:33:34;;;;;;;1999.90;999.90;;;13.70;99.90;;;;;;5100231;28;20102;-66
2023/09/26 03:36:00;;;;;;;1999.90;999.90;;;13.70;99.90;;;;;;5100340;28;20103;-66
2023/09/26 03:38:26;;;;;;;1999.90;999.90;;;13.70;99.90;;;;;;5097651;28;20027;-82
2023/09/26 03:41:00;;;;;;;1999.90;999.90;;;13.70;99.90;;;;;;5100195;28;20500;-67
2023/09/26 03:43:27;;;;;;;1999.90;999.90;;;13.70;99.90;;;;;;5108381;28;20353;-66
2023/09/26 03:46:01;;;;;;;1999.90;999.90;;;13.70;99.90;;;;;;5114679;28;20031;-66
2023/09/26 03:48:27;;;;;;;1999.90;999.90;;;13.70;99.90;;;;;;5099580;28;20437;-66
2023/09/26 03:50:53;;;;;;;1999.90;999.90;;;13.60;99.90;;;;;;5105063;28;20123;-66
2023/09/26 03:53:18;;;;;;;1999.90;999.90;;;13.70;99.90;;;;;;5110572;28;20055;-66
2023/09/26 03:55:55;;;;;;;1999.90;999.90;;;13.60;99.90;;;;;;5108545;28;20019;-79
2023/09/26 03:58:21;;;;;;;;;;;13.60;99.90;;;;;;5107775;28;20038;-66
2023/09/26 04:00:47;;;;;;;1999.90;999.90;;;13.60;99.90;;;;;;5108694;28;19939;-66
2023/09/26 04:03:12;;;;;;;1999.90;999.90;;;13.60;99.90;;;;;;5103005;28;20067;-67
2023/09/26 04:05:39;;;;;;;1999.90;999.90;;;13.60;99.90;;;;;;5098953;28;20048;-66
2023/09/26 04:08:05;;;;;;;1999.90;999.90;;;13.50;99.90;;;;;;5103581;28;20322;-66
2023/09/26 04:10:36;;;;;;;1999.90;999.90;;;13.50;99.90;;;;;;5100369;28;20019;-81
2023/09/26 04:13:02;;;;;;;1999.90;999.90;;;13.50;99.90;;;;;;5106698;28;20042;-66
2023/09/26 04:15:28;;;;;;;1999.90;999.90;;;13.50;99.90;;;;;;5102991;28;20520;-66
2023/09/26 04:17:54;;;;;;;1999.90;999.90;;;13.50;99.90;;;;;;5107708;28;20334;-79
2023/09/26 04:20:20;;;;;;;1999.90;999.90;;;13.40;99.90;;;;;;5102345;28;20276;-66
2023/09/26 04:22:47;;;;;;;1999.90;999.90;;;13.40;99.90;;;;;;5104873;28;20016;-66
2023/09/26 04:25:13;;;;;;;1999.90;999.90;;;13.30;99.90;;;;;;5101392;28;20029;-66
2023/09/26 04:27:38;;;;;;;1999.90;999.90;;;13.30;99.90;;;;;;5102701;28;20035;-67
2023/09/26 04:30:06;;;;;;;1999.90;999.90;;;13.30;99.90;;;;;;5094775;28;20028;-66
2023/09/26 04:32:32;;;;;;;1999.90;999.90;;;13.30;99.90;;;;;;5106936;28;20023;-66
2023/09/26 04:34:57;;;;;;;1999.90;999.90;;;13.30;99.90;;;;;;5113934;28;20028;-66
2023/09/26 04:37:23;;;;;;;1999.90;999.90;;;13.30;99.90;;;;;;5106039;28;20036;-67
2023/09/26 04:39:49;;;;;;;1999.90;999.90;;;13.40;99.90;;;;;;5108095;28;20114;-66
2023/09/26 04:42:14;;;;;;;1999.90;999.90;;;13.40;99.90;;;;;;5113010;28;20035;-66
2023/09/26 04:44:40;;;;;;;1999.90;999.90;;;13.40;99.90;;;;;;5102392;28;20296;-80
2023/09/26 04:47:06;;;;;;;1999.90;999.90;;;13.30;99.90;;;;;;5103887;28;20043;-66
2023/09/26 04:49:34;;;;;;;1999.90;999.90;;;13.30;99.90;;;;;;5103525;28;20044;-66
2023/09/26 04:52:00;;;;;;;1999.90;999.90;;;13.30;99.90;;;;;;5106260;28;20028;-66
2023/09/26 04:54:25;;;;;;;1999.90;999.90;;;13.30;99.90;;;;;;5106026;28;20076;-67
2023/09/26 04:56:51;;;;;;;1999.90;999.90;;;13.30;99.90;;;;;;5108835;28;20031;-67
2023/09/26 04:59:17;;;;;;;1999.90;999.90;;;13.30;99.90;;;;;;5086140;28;20058;-66
2023/09/26 05:01:42;;;;;;;1999.90;999.90;;;13.20;99.90;;;;;;5101537;27;20024;-80
2023/09/26 05:04:08;;;;;;;1999.90;999.90;;;13.20;99.90;;;;;;5103746;28;20028;-66
2023/09/26 05:06:34;;;;;;;1999.90;999.90;;;13.20;99.90;;;;;;5097512;28;20029;-66
2023/09/26 05:08:59;;;;;;;1999.90;999.90;;;13.20;99.90;;;;;;5113849;28;20303;-66
2023/09/26 05:11:27;;;;;;;1999.90;999.90;;;13.20;99.90;;;;;;5117491;28;20019;-68
2023/09/26 05:13:53;;;;;;;1999.90;999.90;;;13.20;99.90;;;;;;5102484;28;20051;-66
2023/09/26 05:16:19;;;;;;;1999.90;999.90;;;13.20;99.90;;;;;;5087425;28;20028;-66
2023/09/26 05:18:44;;;;;;;1999.90;999.90;;;13.20;99.90;;;;;;5114560;28;20028;-75
2023/09/26 05:21:11;;;;;;;1999.90;999.90;;;13.20;99.90;;;;;;5105040;27;20516;-66
2023/09/26 05:23:37;;;;;;;1999.90;999.90;;;13.10;99.90;;;;;;5109571;28;20020;-66
2023/09/26 05:26:07;;;;;;;1999.90;999.90;;;13.10;99.90;;;;;;5105865;28;20022;-66
2023/09/26 05:28:33;;;;;;;1999.90;999.90;;;13.10;99.90;;;;;;5110046;28;20125;-66
2023/09/26 05:30:59;;;;;;;1999.90;999.90;;;13.10;99.90;;;;;;5101274;28;20450;-66
2023/09/26 05:33:24;;;;;;;1999.90;999.90;;;13.10;99.90;;;;;;5109337;28;20085;-66
2023/09/26 05:35:50;;;;;;;1999.90;999.90;;;13.10;99.90;;;;;;5109625;28;20030;-78
2023/09/26 05:38:16;;;;;;;1999.90;999.90;;;13.10;99.90;;;;;;5109381;28;20560;-66
2023/09/26 05:40:41;;;;;;;1999.90;999.90;;;13.20;99.90;;;;;;5117438;27;20459;-66
2023/09/26 05:43:07;;;;;;;1999.90;999.90;;;13.20;99.90;;;;;;5110572;28;20035;-66
2023/09/26 05:45:33;;;;;;;1999.90;999.90;;;13.30;99.90;;;;;;5110050;28;20049;-66
2023/09/26 05:48:00;;;;;;;1999.90;999.90;;;13.20;99.90;;;;;;5115167;28;20019;-67
2023/09/26 05:50:26;;;;;;;;;;;13.20;99.90;;;;;;5105908;28;20350;-66
2023/09/26 05:52:52;;;;;;;1999.90;999.90;;;13.20;99.90;;;;;;5100113;28;19908;-66
2023/09/26 05:55:18;;;;;;;1999.90;999.90;;;13.20;99.90;;;;;;5103940;28;20028;-66
2023/09/26 05:57:43;;;;;;;1999.90;999.90;;;13.30;99.90;;;;;;5111136;28;20035;-66
2023/09/26 06:00:12;;;;;;;1999.90;999.90;;;13.30;99.90;;;;;;5107561;27;20027;-66
2023/09/26 06:02:38;;;;;;;1999.90;999.90;;;13.30;99.90;;;;;;5113758;28;20110;-66
2023/09/26 06:05:04;;;;;;;1999.90;999.90;;;13.30;99.90;;;;;;5105580;28;20032;-80
2023/09/26 06:07:30;;;;;;;1999.90;999.90;;;13.30;99.90;;;;;;5107734;28;20031;-66
2023/09/26 06:09:56;;;;;;;1999.90;999.90;;;13.30;99.90;;;;;;5084485;28;20331;-66
2023/09/26 06:12:22;;;;;;;1999.90;999.90;;;13.40;99.90;;;;;;5104348;28;20273;-66
2023/09/26 06:14:48;;;;;;;1999.90;999.90;;;13.40;99.90;;;;;;5090603;28;20280;-66
2023/09/26 06:17:13;;;;;;;1999.90;999.90;;;13.40;99.90;;;;;;5106725;28;20024;-66
2023/09/26 06:19:44;;;;;;;1999.90;999.90;;;13.40;99.90;;;;;;5108213;27;20027;-80
2023/09/26 06:22:11;;;;;;;1999.90;999.90;;;13.50;99.90;;;;;;5106450;28;20315;-66
2023/09/26 06:24:36;;;;;;;1999.90;999.90;;;13.60;99.90;;;;;;5111063;28;20084;-66
2023/09/26 06:27:02;;;;;;;1999.90;999.90;;;13.60;99.90;;;;;;5104800;28;20024;-66
2023/09/26 06:29:29;;;;;;;1999.90;999.90;;;13.60;99.90;;;;;;5105054;28;20099;-66
2023/09/26 06:31:55;;;;;;;1999.90;999.90;;;13.60;99.90;;;;;;5107682;28;20020;-66
2023/09/26 06:34:21;;;;;;;1999.90;999.90;;;13.60;99.90;;;;;;5106483;28;20097;-66
2023/09/26 06:36:51;;;;;;;1999.90;999.90;;;13.60;99.90;;;;;;5103300;28;20093;-67
2023/09/26 06:39:17;;;;;;;1999.90;999.90;;;13.70;99.90;;;;;;5107803;27;20264;-67
2023/09/26 06:41:43;;;;;;;1999.90;999.90;;;13.70;99.90;;;;;;5104480;27;20046;-66
2023/09/26 06:44:12;;;;;;;1999.90;999.90;;;13.80;99.90;;;;;;5104237;27;20027;-66
2023/09/26 06:46:38;;;;;;;1999.90;999.90;;;13.80;99.90;;;;;;5095721;28;20260;-66
2023/09/26 06:49:04;;;;;;;1999.90;999.90;;;13.90;99.90;;;;;;5085313;28;20086;-66
2023/09/26 06:51:30;;;;;;;1999.90;999.90;;;13.90;99.90;;;;;;5084522;28;20498;-66
2023/09/26 06:53:56;;;;;;;1999.90;999.90;;;13.90;99.90;;;;;;5075710;28;20751;-67
2023/09/26 06:56:22;;;;;;;1999.90;999.90;;;13.90;99.90;;;;;;5085053;28;20040;-66
2023/09/26 06:58:48;;;;;;;1999.90;999.90;;;14.10;99.90;;;;;;5077687;28;20020;-66
2023/09/26 07:01:15;;;;;;;1999.90;999.90;;;14.20;99.90;;;;;;5084732;28;20036;-66
2023/09/26 07:03:41;;;;;;;1999.90;999.90;;;14.30;99.90;;;;;;5078113;28;20033;-67
2023/09/26 07:06:12;;;;;;;1999.90;999.90;;;14.40;99.90;;;;;;5077988;28;20060;-66
2023/09/26 07:08:39;;;;;;;1999.90;999.90;;;14.40;99.90;;;;;;5085933;28;20100;-66
2023/09/26 07:11:05;;;;;;;;;;;14.40;99.90;;;;;;5077324;28;20040;-69
2023/09/26 07:13:35;;;;;;;1999.90;999.90;;;14.40;99.90;;;;;;5082782;28;19912;-67
2023/09/26 07:16:04;;;;;;;1999.90;999.90;;;14.40;99.90;;;;;;5075398;28;20032;-66
2023/09/26 07:18:34;;;;;;;1999.90;999.90;;;14.40;99.90;;;;;;5086765;28;20032;-66
2023/09/26 07:21:05;;;;;;;1999.90;999.90;;;14.50;99.90;;;;;;5090551;28;20414;-66
2023/09/26 07:23:37;;;;;;;1999.90;999.90;;;14.50;99.90;;;;;;5083613;28;20028;-66
2023/09/26 07:26:15;;;;;;;1999.90;999.90;;;14.50;99.90;;;;;;5078079;28;20024;-66
2023/09/26 07:28:41;;;;;;;1999.90;999.90;;;14.50;99.90;;;;;;5080135;28;20300;-66
2023/09/26 07:31:11;;;;;;;1999.90;999.90;;;14.60;99.90;;;;;;5087501;28;20449;-66
2023/09/26 07:33:38;;;;;;;1999.90;999.90;;;14.60;99.90;;;;;;5088378;28;20029;-66
2023/09/26 07:36:06;;;;;;;1999.90;999.90;;;14.60;99.90;;;;;;5088623;28;20036;-66
2023/09/26 07:38:32;;;;;;;1999.90;999.90;;;14.60;99.90;;;;;;5089874;28;20027;-66
2023/09/26 07:40:59;;;;;;;1999.90;999.90;;;14.70;99.90;;;;;;5081082;28;20028;-66
2023/09/26 07:43:29;;;;;;;1999.90;999.90;;;14.70;99.90;;;;;;5080818;28;20024;-66
2023/09/26 07:45:57;;;;;;;1999.90;999.90;;;14.80;99.90;;;;;;5083706;28;20111;-66
2023/09/26 07:48:24;;;;;;;1999.90;999.90;;;14.80;99.90;;;;;;5082386;28;20031;-81
2023/09/26 07:50:49;;;;;;;;;;;14.90;99.90;;;;;;5079108;28;20051;-66
2023/09/26 07:53:15;;;;;;;1999.90;999.90;;;15.00;99.90;;;;;;5086944;28;19912;-67
2023/09/26 07:55:41;;;;;;;1999.90;999.90;;;15.20;99.90;;;;;;5081135;28;20755;-66
2023/09/26 07:58:07;;;;;;;1999.90;999.90;;;15.50;99.90;;;;;;5086291;28;20027;-67
2023/09/26 08:00:34;;;;;;;1999.90;999.90;;;15.80;99.90;;;;;;5079557;28;20461;-66
2023/09/26 08:03:00;;;;;;;1999.90;999.90;;;16.10;99.90;;;;;;5083605;28;20036;-66
2023/09/26 08:05:26;;;;;;;1999.90;999.90;;;16.40;99.90;;;;;;5095406;28;20024;-68
2023/09/26 08:07:52;;;;;;;1999.90;999.90;;;16.80;99.90;;;;;;5074885;28;20036;-66
2023/09/26 08:10:18;;;;;;;1999.90;999.90;;;17.20;99.90;;;;;;5096302;28;20031;-66
2023/09/26 08:12:43;;;;;;;1999.90;999.90;;;17.50;99.90;;;;;;5075454;28;20419;-66
2023/09/26 08:15:09;;;;;;;1999.90;999.90;;;17.90;99.90;;;;;;5093248;28;20031;-67
2023/09/26 08:17:35;;;;;;;1999.90;999.90;;;17.80;99.90;;;;;;5086475;28;20028;-67
2023/09/26 08:20:01;;;;;;;1999.90;999.90;;;17.80;99.90;;;;;;5084093;28;20033;-67
2023/09/26 08:22:26;;;;;;;1999.90;999.90;;;17.60;99.90;;;;;;5096108;28;20032;-81
2023/09/26 08:24:52;;;;;;;1999.90;999.90;;;17.50;99.90;;;;;;5089799;28;20044;-67
2023/09/26 08:27:18;;;;;;;1999.90;999.90;;;17.40;99.90;;;;;;5089777;28;20020;-66
2023/09/26 08:29:44;;;;;;;1999.90;999.90;;;17.30;99.90;;;;;;5086938;28;20021;-66
2023/09/26 08:32:10;;;;;;;1999.90;999.90;;;17.20;99.90;;;;;;5090912;28;20257;-67
2023/09/26 08:34:36;;;;;;;1999.90;999.90;;;17.20;99.90;;;;;;5084709;28;20036;-66
2023/09/26 08:37:01;;;;;;;1999.90;999.90;;;17.20;99.90;;;;;;5086863;28;20043;-66
2023/09/26 08:39:27;;;;;;;1999.90;999.90;;;17.30;99.90;;;;;;5077960;28;20268;-67
2023/09/26 08:41:54;;;;;;;1999.90;999.90;;;17.30;99.90;;;;;;5078745;28;20112;-66
2023/09/26 08:44:19;;;;;;;;;;;17.40;99.90;;;;;;5088350;28;20081;-66
2023/09/26 08:46:45;;;;;;;1999.90;999.90;;;17.40;99.90;;;;;;5092748;28;19920;-67
2023/09/26 08:49:11;;;;;;;1999.90;999.90;;;17.40;99.90;;;;;;5098587;28;20111;-78
2023/09/26 08:51:37;;;;;;;1999.90;999.90;;;17.50;99.90;;;;;;5103274;28;20099;-67
2023/09/26 08:54:04;;;;;;;1999.90;999.90;;;17.50;99.90;;;;;;5098390;27;20077;-66
2023/09/26 08:56:33;;;;;;;1999.90;999.90;;;17.60;99.90;;;;;;5101532;27;20028;-67
2023/09/26 08:59:02;;;;;;;1999.90;999.90;;;17.90;99.90;;;;;;5104745;28;20473;-67
2023/09/26 09:01:28;;;;;;;1999.90;999.90;;;18.50;99.90;;;;;;5109235;28;20032;-66
2023/09/26 09:03:54;;;;;;;;;;;18.80;99.90;;;;;;5103480;28;20035;-66
2023/09/26 09:06:25;;;;;;;1999.90;999.90;;;19.20;99.90;;;;;;5104719;27;19912;-67
2023/09/26 09:09:07;;;;;;;1999.90;999.90;;;19.50;99.90;;;;;;5096997;28;20035;-67
2023/09/26 09:11:33;;;;;;;1999.90;999.90;;;19.60;99.90;;;;;;5105590;27;20024;-71
2023/09/26 09:13:58;;;;;;;1999.90;999.90;;;19.60;99.90;;;;;;5099153;28;20089;-67
2023/09/26 09:16:24;;;;;;;1999.90;999.90;;;19.70;99.90;;;;;;5100018;27;20030;-66
2023/09/26 09:18:51;;;;;;;1999.90;999.90;;;19.80;99.90;;;;;;5098958;28;20489;-67
2023/09/26 09:21:27;;;;;;;1999.90;999.90;;;19.90;99.90;;;;;;5098889;27;20043;-67
2023/09/26 09:23:54;;;;;;;1999.90;999.90;;;20.00;99.90;;;;;;5107432;28;20032;-66
2023/09/26 09:26:22;;;;;;;1999.90;999.90;;;19.90;99.90;;;;;;5098522;28;20024;-67
2023/09/26 09:28:50;;;;;;;1999.90;999.90;;;19.70;99.90;;;;;;5100224;28;20028;-67
2023/09/26 09:31:16;;;;;;;1999.90;999.90;;;19.60;99.90;;;;;;5099087;27;20027;-67
2023/09/26 09:33:46;;;;;;;1999.90;999.90;;;19.50;99.90;;;;;;5089921;28;20063;-66
2023/09/26 09:36:13;;;;;;;1999.90;999.90;;;19.40;99.90;;;;;;5096912;28;20039;-80
2023/09/26 09:38:39;;;;;;;1999.90;999.90;;;19.30;99.90;;;;;;5095768;28;20035;-66
2023/09/26 09:41:09;;;;;;;1999.90;999.90;;;19.20;99.90;;;;;;5099287;28;20326;-67
2023/09/26 09:43:36;;;;;;;1999.90;999.90;;;19.20;99.90;;;;;;5105072;28;20315;-66
2023/09/26 09:46:06;;;;;;;1999.90;999.90;;;19.20;99.90;;;;;;5108089;28;20059;-66
2023/09/26 09:48:40;;;;;;;1999.90;999.90;;;19.20;99.90;;;;;;5095191;28;20034;-66
2023/09/26 09:51:09;;;;;;;1999.90;999.90;;;19.10;99.90;;;;;;5104357;28;20039;-67
2023/09/26 09:53:35;;;;;;;1999.90;999.90;;;19.10;99.90;;;;;;5111121;28;20035;-66
2023/09/26 09:56:06;;;;;;;1999.90;999.90;;;19.00;99.90;;;;;;5106753;28;20046;-66
2023/09/26 09:58:33;;;;;;;1999.90;999.90;;;19.00;99.90;;;;;;5107336;28;20437;-77
2023/09/26 10:01:00;;;;;;;1999.90;999.90;;;19.00;99.90;;;;;;5112227;28;20318;-66
2023/09/26 10:03:26;;;;;;;1999.90;999.90;;;19.00;99.90;;;;;;5102535;27;20043;-66
2023/09/26 10:05:53;;;;;;;1999.90;999.90;;;19.00;99.90;;;;;;5097747;28;20030;-66
2023/09/26 10:08:20;;;;;;;1999.90;999.90;;;19.00;99.90;;;;;;5105206;28;20024;-67
2023/09/26 10:10:46;;;;;;;1999.90;999.90;;;19.10;99.90;;;;;;5095486;28;20062;-66
2023/09/26 10:13:13;;;;;;;1999.90;999.90;;;19.10;99.90;;;;;;5101901;27;20016;-67
2023/09/26 10:16:07;;;;;;;1999.90;999.90;;;19.20;99.90;;;;;;5102241;28;20427;-67
2023/09/26 10:18:39;;;;;;;1999.90;999.90;;;19.30;99.90;;;;;;5082727;28;20032;-66
2023/09/26 10:21:26;;;;;;;1999.90;999.90;;;19.30;99.90;;;;;;5095615;28;20040;-67
2023/09/26 10:24:15;;;;;;;1999.90;999.90;;;19.40;99.90;;;;;;5088091;28;20330;-67
2023/09/26 10:26:49;;;;;;;1999.90;999.90;;;19.50;99.90;;;;;;5102101;28;20478;-66
2023/09/26 10:29:14;;;;;;;1999.90;999.90;;;19.50;99.90;;;;;;5101934;28;20110;-66
2023/09/26 10:31:46;;;;;;;1999.90;999.90;;;19.60;99.90;;;;;;5102854;27;20153;-80
2023/09/26 10:34:12;;;;;;;1999.90;999.90;;;19.70;99.90;;;;;;5101048;28;20043;-66
2023/09/26 10:36:38;;;;;;;1999.90;999.90;;;19.80;99.90;;;;;;5099325;28;20027;-66
2023/09/26 10:39:09;;;;;;;1999.90;999.90;;;19.80;99.90;;;;;;5096321;28;20024;-79
2023/09/26 10:41:36;;;;;;;1999.90;999.90;;;19.90;99.90;;;;;;5100980;27;20024;-66
2023/09/26 10:44:04;;;;;;;1999.90;999.90;;;20.00;99.90;;;;;;5097988;28;20042;-66
2023/09/26 10:46:30;;;;;;;1999.90;999.90;;;20.00;99.90;;;;;;5105728;27;20070;-66
2023/09/26 10:48:57;;;;;;;1999.90;999.90;;;20.10;99.90;;;;;;5095039;28;20052;-67
2023/09/26 10:51:23;;;;;;;1999.90;999.90;;;20.10;99.90;;;;;;5098901;28;20016;-66
2023/09/26 10:53:49;;;;;;;1999.90;999.90;;;20.20;99.90;;;;;;5107210;28;20050;-67
2023/09/26 10:56:15;;;;;;;1999.90;999.90;;;20.20;99.90;;;;;;5097133;27;20118;-74
2023/09/26 10:58:42;;;;;;;1999.90;999.90;;;20.30;99.90;;;;;;5096490;28;20047;-66
2023/09/26 11:01:08;;;;;;;1999.90;999.90;;;20.30;99.90;;;;;;5101399;27;20349;-66
2023/09/26 11:03:34;;;;;;;1999.90;999.90;;;20.40;99.90;;;;;;5082546;28;20032;-66
2023/09/26 11:06:01;;;;;;;1999.90;999.90;;;20.40;99.90;;;;;;5094689;28;20575;-66
2023/09/26 11:08:31;;;;;;;1999.90;999.90;;;20.50;99.90;;;;;;5108127;28;20040;-67
2023/09/26 11:10:57;;;;;;;1999.90;999.90;;;20.50;99.90;;;;;;5081634;28;20146;-66
2023/09/26 11:13:23;;;;;;;1999.90;999.90;;;20.50;99.90;;;;;;5102710;28;20016;-66
2023/09/26 11:15:53;;;;;;;1999.90;999.90;;;20.60;99.90;;;;;;5081530;28;20379;-66
2023/09/26 11:18:18;;;;;;;1999.90;999.90;;;20.60;99.90;;;;;;5097754;28;20020;-67
2023/09/26 11:20:44;;;;;;;1999.90;999.90;;;20.70;99.90;;;;;;5096314;28;20117;-85
2023/09/26 11:23:10;;;;;;;1999.90;999.90;;;20.80;99.90;;;;;;5095537;28;20099;-67
2023/09/26 11:25:36;;;;;;;1999.90;999.90;;;20.80;99.90;;;;;;5089754;28;20039;-66
2023/09/26 11:28:03;;;;;;;1999.90;999.90;;;21.00;99.90;;;;;;5104360;28;20073;-66
2023/09/26 11:30:29;;;;;;;1999.90;999.90;;;21.20;99.90;;;;;;5076244;28;20035;-67
2023/09/26 11:32:55;;;;;;;1999.90;999.90;;;21.30;99.90;;;;;;5099991;28;20023;-67
2023/09/26 11:35:22;;;;;;;1999.90;999.90;;;21.30;99.90;;;;;;5094207;28;20043;-66
2023/09/26 11:37:49;;;;;;;1999.90;999.90;;;21.20;99.90;;;;;;5105324;28;20028;-81
2023/09/26 11:40:22;;;;;;;1999.90;999.90;;;21.20;99.90;;;;;;5108593;28;20028;-67
2023/09/26 11:42:50;;;;;;;1999.90;999.90;;;21.20;99.90;;;;;;5103722;28;20434;-66
2023/09/26 11:45:20;;;;;;;1999.90;999.90;;;21.20;99.90;;;;;;5090824;28;20104;-67
2023/09/26 11:47:47;;;;;;;1999.90;999.90;;;21.10;99.90;;;;;;5113190;28;20031;-67
2023/09/26 11:50:12;;;;;;;1999.90;999.90;;;21.20;99.90;;;;;;5090339;28;20048;-66
2023/09/26 11:52:39;;;;;;;1999.90;999.90;;;21.20;99.90;;;;;;5100148;28;20042;-66
2023/09/26 11:55:06;;;;;;;1999.90;999.90;;;21.20;99.90;;;;;;5101822;28;20093;-67
2023/09/26 11:57:33;;;;;;;1999.90;999.90;;;21.20;99.90;;;;;;5104060;28;20047;-67
2023/09/26 12:00:00;;;;;;;1999.90;999.90;;;21.40;99.90;;;;;;5100804;28;20028;-66
2023/09/26 12:02:25;;;;;;;1999.90;999.90;;;21.50;99.90;;;;;;5107320;28;20027;-69